Terminal Aerodrome Forecast
Issued by NWS Raleigh/Durham, NC

Home | Current Version | Previous Version | Text Only | Print | Product List | Glossary On
Versions: 1 2 3 4 5 6 7 8 9 10 11 12
000
FTUS42 KRAH 250524
TAFGSO
TAF
KGSO 250524Z 2506/2606 00000KT P6SM FEW250
     FM251500 24007KT P6SM SCT200
     FM252000 25007KT P6SM BKN110
     FM260200 30007KT P6SM FEW250=

USA.gov is the U.S. government's official web portal to all federal, state and local government web resources and services.